sensor_id;sensor_type;location;lat;lon;timestamp;temperature;humidity
66343;DHT22;53144;51.524;5.080;2022-12-08T00:01:24;3.82;97.79
66343;DHT22;53144;51.524;5.080;2022-12-08T00:03:50;3.83;97.68
66343;DHT22;53144;51.524;5.080;2022-12-08T00:12:10;3.83;97.68
66343;DHT22;53144;51.524;5.080;2022-12-08T00:14:41;3.85;97.73
66343;DHT22;53144;51.524;5.080;2022-12-08T00:17:08;3.82;97.58
66343;DHT22;53144;51.524;5.080;2022-12-08T00:19:35;3.76;97.73
66343;DHT22;53144;51.524;5.080;2022-12-08T00:22:03;3.75;97.63
66343;DHT22;53144;51.524;5.080;2022-12-08T00:24:31;3.68;97.60
66343;DHT22;53144;51.524;5.080;2022-12-08T00:26:59;3.61;97.83
66343;DHT22;53144;51.524;5.080;2022-12-08T00:29:24;3.56;98.06
66343;DHT22;53144;51.524;5.080;2022-12-08T00:31:49;3.54;98.19
66343;DHT22;53144;51.524;5.080;2022-12-08T00:34:15;3.54;98.43
66343;DHT22;53144;51.524;5.080;2022-12-08T00:36:41;3.62;98.31
66343;DHT22;53144;51.524;5.080;2022-12-08T00:39:08;3.65;98.12
66343;DHT22;53144;51.524;5.080;2022-12-08T00:41:33;3.65;98.23
66343;DHT22;53144;51.524;5.080;2022-12-08T00:44:17;3.68;98.18
66343;DHT22;53144;51.524;5.080;2022-12-08T00:46:44;3.71;98.19
66343;DHT22;53144;51.524;5.080;2022-12-08T00:49:10;3.71;97.99
66343;DHT22;53144;51.524;5.080;2022-12-08T00:51:36;3.64;98.08
66343;DHT22;53144;51.524;5.080;2022-12-08T00:54:02;3.65;98.04
66343;DHT22;53144;51.524;5.080;2022-12-08T00:56:28;3.69;98.06
66343;DHT22;53144;51.524;5.080;2022-12-08T00:58:54;3.68;97.95
66343;DHT22;53144;51.524;5.080;2022-12-08T01:01:22;3.66;97.96
66343;DHT22;53144;51.524;5.080;2022-12-08T01:03:48;3.69;97.99
66343;DHT22;53144;51.524;5.080;2022-12-08T01:06:16;3.71;97.96
66343;DHT22;53144;51.524;5.080;2022-12-08T01:08:42;3.78;98.10
66343;DHT22;53144;51.524;5.080;2022-12-08T01:11:15;3.74;98.02
66343;DHT22;53144;51.524;5.080;2022-12-08T01:13:41;3.75;97.98
66343;DHT22;53144;51.524;5.080;2022-12-08T01:16:07;3.81;97.88
66343;DHT22;53144;51.524;5.080;2022-12-08T01:18:35;3.81;97.76
66343;DHT22;53144;51.524;5.080;2022-12-08T01:21:03;3.83;97.83
66343;DHT22;53144;51.524;5.080;2022-12-08T01:23:28;3.85;97.57
66343;DHT22;53144;51.524;5.080;2022-12-08T01:25:54;3.81;97.67
66343;DHT22;53144;51.524;5.080;2022-12-08T01:28:19;3.78;97.90
66343;DHT22;53144;51.524;5.080;2022-12-08T01:30:45;3.87;97.77
66343;DHT22;53144;51.524;5.080;2022-12-08T01:33:10;3.81;97.45
66343;DHT22;53144;51.524;5.080;2022-12-08T01:35:35;3.82;97.62
66343;DHT22;53144;51.524;5.080;2022-12-08T01:38:04;3.85;97.68
66343;DHT22;53144;51.524;5.080;2022-12-08T01:40:29;3.89;97.63
66343;DHT22;53144;51.524;5.080;2022-12-08T01:42:55;3.92;97.65
66343;DHT22;53144;51.524;5.080;2022-12-08T01:45:26;3.92;97.66
66343;DHT22;53144;51.524;5.080;2022-12-08T01:47:56;3.85;97.60
66343;DHT22;53144;51.524;5.080;2022-12-08T01:50:28;3.83;97.74
66343;DHT22;53144;51.524;5.080;2022-12-08T01:53:07;3.85;97.74
66343;DHT22;53144;51.524;5.080;2022-12-08T01:55:40;3.86;97.72
66343;DHT22;53144;51.524;5.080;2022-12-08T01:58:19;3.83;97.78
66343;DHT22;53144;51.524;5.080;2022-12-08T02:00:45;3.83;97.73
66343;DHT22;53144;51.524;5.080;2022-12-08T02:03:15;3.82;97.74
66343;DHT22;53144;51.524;5.080;2022-12-08T02:05:45;3.82;97.90
66343;DHT22;53144;51.524;5.080;2022-12-08T02:08:12;3.85;97.77
66343;DHT22;53144;51.524;5.080;2022-12-08T02:10:40;3.86;97.78
66343;DHT22;53144;51.524;5.080;2022-12-08T02:13:11;3.85;97.68
66343;DHT22;53144;51.524;5.080;2022-12-08T02:16:18;3.87;97.75
66343;DHT22;53144;51.524;5.080;2022-12-08T02:21:37;3.85;97.87
66343;DHT22;53144;51.524;5.080;2022-12-08T02:38:31;3.83;97.91
66343;DHT22;53144;51.524;5.080;2022-12-08T02:43:45;3.81;97.93
66343;DHT22;53144;51.524;5.080;2022-12-08T02:47:01;3.83;97.99
66343;DHT22;53144;51.524;5.080;2022-12-08T02:49:07;3.81;97.86
66343;DHT22;53144;51.524;5.080;2022-12-08T02:51:33;3.82;97.92
66343;DHT22;53144;51.524;5.080;2022-12-08T02:54:01;3.83;97.77
66343;DHT22;53144;51.524;5.080;2022-12-08T02:56:40;3.83;97.76
66343;DHT22;53144;51.524;5.080;2022-12-08T02:59:19;3.86;97.79
66343;DHT22;53144;51.524;5.080;2022-12-08T03:02:09;3.86;97.98
66343;DHT22;53144;51.524;5.080;2022-12-08T03:05:02;3.90;97.87
66343;DHT22;53144;51.524;5.080;2022-12-08T03:10:28;3.89;97.91
66343;DHT22;53144;51.524;5.080;2022-12-08T03:12:59;3.86;97.89
66343;DHT22;53144;51.524;5.080;2022-12-08T03:15:26;3.87;98.14
66343;DHT22;53144;51.524;5.080;2022-12-08T03:17:55;3.93;98.00
66343;DHT22;53144;51.524;5.080;2022-12-08T03:20:23;3.92;97.98
66343;DHT22;53144;51.524;5.080;2022-12-08T03:22:51;3.92;98.33
66343;DHT22;53144;51.524;5.080;2022-12-08T03:25:20;3.93;98.20
66343;DHT22;53144;51.524;5.080;2022-12-08T03:27:46;3.92;98.41
66343;DHT22;53144;51.524;5.080;2022-12-08T03:30:12;3.89;98.45
66343;DHT22;53144;51.524;5.080;2022-12-08T03:32:46;3.92;98.60
66343;DHT22;53144;51.524;5.080;2022-12-08T03:35:16;3.93;98.76
66343;DHT22;53144;51.524;5.080;2022-12-08T03:37:42;3.96;98.67
66343;DHT22;53144;51.524;5.080;2022-12-08T03:40:09;3.99;98.42
66343;DHT22;53144;51.524;5.080;2022-12-08T03:42:35;3.95;98.36
66343;DHT22;53144;51.524;5.080;2022-12-08T03:45:00;3.95;98.39
66343;DHT22;53144;51.524;5.080;2022-12-08T03:47:26;3.93;98.40
66343;DHT22;53144;51.524;5.080;2022-12-08T03:49:51;3.92;98.42
66343;DHT22;53144;51.524;5.080;2022-12-08T03:52:16;3.96;98.31
66343;DHT22;53144;51.524;5.080;2022-12-08T03:54:42;3.87;98.10
66343;DHT22;53144;51.524;5.080;2022-12-08T03:57:07;3.87;97.96
66343;DHT22;53144;51.524;5.080;2022-12-08T03:59:33;3.87;97.44
66343;DHT22;53144;51.524;5.080;2022-12-08T04:01:58;3.86;97.09
66343;DHT22;53144;51.524;5.080;2022-12-08T04:04:23;3.86;97.40
66343;DHT22;53144;51.524;5.080;2022-12-08T04:06:51;3.87;97.16
66343;DHT22;53144;51.524;5.080;2022-12-08T04:09:17;3.90;97.06
66343;DHT22;53144;51.524;5.080;2022-12-08T04:11:43;3.93;97.02
66343;DHT22;53144;51.524;5.080;2022-12-08T04:14:08;3.95;97.06
66343;DHT22;53144;51.524;5.080;2022-12-08T04:16:34;3.95;97.23
66343;DHT22;53144;51.524;5.080;2022-12-08T04:18:59;3.87;96.10
66343;DHT22;53144;51.524;5.080;2022-12-08T04:21:25;3.89;96.22
66343;DHT22;53144;51.524;5.080;2022-12-08T04:23:50;3.90;96.00
66343;DHT22;53144;51.524;5.080;2022-12-08T04:26:16;3.96;96.05
66343;DHT22;53144;51.524;5.080;2022-12-08T04:28:41;3.96;96.00
66343;DHT22;53144;51.524;5.080;2022-12-08T04:31:07;3.95;95.75
66343;DHT22;53144;51.524;5.080;2022-12-08T04:33:33;3.95;95.97
66343;DHT22;53144;51.524;5.080;2022-12-08T04:35:59;3.92;95.77
66343;DHT22;53144;51.524;5.080;2022-12-08T04:38:25;3.93;96.30
66343;DHT22;53144;51.524;5.080;2022-12-08T04:40:53;3.89;96.20
66343;DHT22;53144;51.524;5.080;2022-12-08T04:43:18;3.85;96.55
66343;DHT22;53144;51.524;5.080;2022-12-08T04:45:44;3.83;96.63
66343;DHT22;53144;51.524;5.080;2022-12-08T04:48:10;3.78;96.90
66343;DHT22;53144;51.524;5.080;2022-12-08T04:50:40;3.78;96.95
66343;DHT22;53144;51.524;5.080;2022-12-08T04:53:11;3.75;97.09
66343;DHT22;53144;51.524;5.080;2022-12-08T04:55:38;3.74;97.32
66343;DHT22;53144;51.524;5.080;2022-12-08T04:58:04;3.71;97.26
66343;DHT22;53144;51.524;5.080;2022-12-08T05:00:30;3.74;97.48
66343;DHT22;53144;51.524;5.080;2022-12-08T05:02:56;3.68;97.38
66343;DHT22;53144;51.524;5.080;2022-12-08T05:05:21;3.72;97.27
66343;DHT22;53144;51.524;5.080;2022-12-08T05:07:47;3.64;97.28
66343;DHT22;53144;51.524;5.080;2022-12-08T05:10:12;3.66;96.87
66343;DHT22;53144;51.524;5.080;2022-12-08T05:12:38;3.69;96.66
66343;DHT22;53144;51.524;5.080;2022-12-08T05:15:04;3.69;96.67
66343;DHT22;53144;51.524;5.080;2022-12-08T05:17:29;3.72;97.08
66343;DHT22;53144;51.524;5.080;2022-12-08T05:19:54;3.65;96.36
66343;DHT22;53144;51.524;5.080;2022-12-08T05:22:20;3.66;96.51
66343;DHT22;53144;51.524;5.080;2022-12-08T05:24:45;3.62;96.56
66343;DHT22;53144;51.524;5.080;2022-12-08T05:27:11;3.68;97.11
66343;DHT22;53144;51.524;5.080;2022-12-08T05:29:36;3.71;96.72
66343;DHT22;53144;51.524;5.080;2022-12-08T05:32:02;3.79;96.44
66343;DHT22;53144;51.524;5.080;2022-12-08T05:34:27;3.75;96.15
66343;DHT22;53144;51.524;5.080;2022-12-08T05:37:00;3.79;96.49
66343;DHT22;53144;51.524;5.080;2022-12-08T05:39:26;3.78;96.44
66343;DHT22;53144;51.524;5.080;2022-12-08T05:41:51;3.74;95.96
66343;DHT22;53144;51.524;5.080;2022-12-08T05:44:17;3.74;95.65
66343;DHT22;53144;51.524;5.080;2022-12-08T05:46:42;3.74;95.68
66343;DHT22;53144;51.524;5.080;2022-12-08T05:49:07;3.74;95.93
66343;DHT22;53144;51.524;5.080;2022-12-08T05:51:33;3.81;96.31
66343;DHT22;53144;51.524;5.080;2022-12-08T05:53:59;3.75;96.13
66343;DHT22;53144;51.524;5.080;2022-12-08T05:56:24;3.78;95.71
66343;DHT22;53144;51.524;5.080;2022-12-08T05:58:50;3.72;96.02
66343;DHT22;53144;51.524;5.080;2022-12-08T06:01:26;3.75;96.11
66343;DHT22;53144;51.524;5.080;2022-12-08T06:03:55;3.81;96.94
66343;DHT22;53144;51.524;5.080;2022-12-08T06:06:21;3.81;96.35
66343;DHT22;53144;51.524;5.080;2022-12-08T06:08:47;3.82;96.36
66343;DHT22;53144;51.524;5.080;2022-12-08T06:11:26;3.82;96.45
66343;DHT22;53144;51.524;5.080;2022-12-08T06:13:56;3.82;96.32
66343;DHT22;53144;51.524;5.080;2022-12-08T06:16:22;3.83;95.70
66343;DHT22;53144;51.524;5.080;2022-12-08T06:18:48;3.89;96.15
66343;DHT22;53144;51.524;5.080;2022-12-08T06:21:15;3.83;95.95
66343;DHT22;53144;51.524;5.080;2022-12-08T06:23:41;3.86;96.11
66343;DHT22;53144;51.524;5.080;2022-12-08T06:26:10;3.93;96.57
66343;DHT22;53144;51.524;5.080;2022-12-08T06:28:36;3.85;96.80
66343;DHT22;53144;51.524;5.080;2022-12-08T06:31:06;3.90;96.93
66343;DHT22;53144;51.524;5.080;2022-12-08T06:33:34;3.89;96.91
66343;DHT22;53144;51.524;5.080;2022-12-08T06:35:59;3.86;96.74
66343;DHT22;53144;51.524;5.080;2022-12-08T06:38:25;3.86;96.96
66343;DHT22;53144;51.524;5.080;2022-12-08T06:40:54;3.86;96.78
66343;DHT22;53144;51.524;5.080;2022-12-08T06:43:20;3.86;96.32
66343;DHT22;53144;51.524;5.080;2022-12-08T06:45:46;3.86;96.61
66343;DHT22;53144;51.524;5.080;2022-12-08T06:48:11;3.86;96.18
66343;DHT22;53144;51.524;5.080;2022-12-08T06:50:36;3.82;96.34
66343;DHT22;53144;51.524;5.080;2022-12-08T06:53:02;3.81;96.66
66343;DHT22;53144;51.524;5.080;2022-12-08T06:55:30;3.81;96.96
66343;DHT22;53144;51.524;5.080;2022-12-08T06:57:55;3.82;97.00
66343;DHT22;53144;51.524;5.080;2022-12-08T07:00:21;3.74;97.01
66343;DHT22;53144;51.524;5.080;2022-12-08T07:02:47;3.78;97.14
66343;DHT22;53144;51.524;5.080;2022-12-08T07:05:15;3.79;97.00
66343;DHT22;53144;51.524;5.080;2022-12-08T07:07:40;3.78;97.09
66343;DHT22;53144;51.524;5.080;2022-12-08T07:10:06;3.79;97.34
66343;DHT22;53144;51.524;5.080;2022-12-08T07:12:32;3.75;97.21
66343;DHT22;53144;51.524;5.080;2022-12-08T07:14:57;3.82;97.32
66343;DHT22;53144;51.524;5.080;2022-12-08T07:17:25;3.79;97.05
66343;DHT22;53144;51.524;5.080;2022-12-08T07:19:50;3.81;97.22
66343;DHT22;53144;51.524;5.080;2022-12-08T07:22:16;3.82;97.09
66343;DHT22;53144;51.524;5.080;2022-12-08T07:24:41;3.86;97.02
66343;DHT22;53144;51.524;5.080;2022-12-08T07:27:07;3.85;97.46
66343;DHT22;53144;51.524;5.080;2022-12-08T07:29:32;3.86;97.47
66343;DHT22;53144;51.524;5.080;2022-12-08T07:31:58;3.86;97.62
66343;DHT22;53144;51.524;5.080;2022-12-08T07:34:24;3.81;98.10
66343;DHT22;53144;51.524;5.080;2022-12-08T07:36:49;3.75;97.85
66343;DHT22;53144;51.524;5.080;2022-12-08T07:39:17;3.76;98.19
66343;DHT22;53144;51.524;5.080;2022-12-08T07:41:43;3.74;98.04
66343;DHT22;53144;51.524;5.080;2022-12-08T07:44:08;3.68;98.25
66343;DHT22;53144;51.524;5.080;2022-12-08T07:46:36;3.75;98.41
66343;DHT22;53144;51.524;5.080;2022-12-08T07:49:04;3.72;98.31
66343;DHT22;53144;51.524;5.080;2022-12-08T07:51:30;3.75;98.24
66343;DHT22;53144;51.524;5.080;2022-12-08T07:53:55;3.79;98.36
66343;DHT22;53144;51.524;5.080;2022-12-08T07:56:37;3.72;98.31
66343;DHT22;53144;51.524;5.080;2022-12-08T07:59:25;3.85;98.49
66343;DHT22;53144;51.524;5.080;2022-12-08T08:01:56;3.81;98.02
66343;DHT22;53144;51.524;5.080;2022-12-08T08:04:25;3.85;96.84
66343;DHT22;53144;51.524;5.080;2022-12-08T08:06:50;3.72;96.63
66343;DHT22;53144;51.524;5.080;2022-12-08T08:09:26;3.61;95.73
66343;DHT22;53144;51.524;5.080;2022-12-08T08:12:12;3.58;96.43
66343;DHT22;53144;51.524;5.080;2022-12-08T08:15:12;3.58;96.54
66343;DHT22;53144;51.524;5.080;2022-12-08T08:17:38;3.52;96.33
66343;DHT22;53144;51.524;5.080;2022-12-08T08:20:06;3.50;96.58
66343;DHT22;53144;51.524;5.080;2022-12-08T08:22:32;3.54;96.74
66343;DHT22;53144;51.524;5.080;2022-12-08T08:24:58;3.58;97.11
66343;DHT22;53144;51.524;5.080;2022-12-08T08:27:23;3.65;97.66
66343;DHT22;53144;51.524;5.080;2022-12-08T08:29:53;3.69;97.37
66343;DHT22;53144;51.524;5.080;2022-12-08T08:32:21;3.71;97.37
66343;DHT22;53144;51.524;5.080;2022-12-08T08:37:58;3.69;96.91
66343;DHT22;53144;51.524;5.080;2022-12-08T08:40:26;3.68;96.85
66343;DHT22;53144;51.524;5.080;2022-12-08T08:43:03;3.68;96.44
66343;DHT22;53144;51.524;5.080;2022-12-08T08:46:02;3.61;95.79
66343;DHT22;53144;51.524;5.080;2022-12-08T08:48:29;3.62;96.52
66343;DHT22;53144;51.524;5.080;2022-12-08T08:51:12;3.64;96.31
66343;DHT22;53144;51.524;5.080;2022-12-08T08:53:49;3.56;95.72
66343;DHT22;53144;51.524;5.080;2022-12-08T08:56:20;3.51;95.89
66343;DHT22;53144;51.524;5.080;2022-12-08T08:58:50;3.48;96.00
66343;DHT22;53144;51.524;5.080;2022-12-08T09:01:23;3.64;96.72
66343;DHT22;53144;51.524;5.080;2022-12-08T09:03:55;3.59;96.29
66343;DHT22;53144;51.524;5.080;2022-12-08T09:06:24;3.59;96.07
66343;DHT22;53144;51.524;5.080;2022-12-08T09:08:50;3.64;96.07
66343;DHT22;53144;51.524;5.080;2022-12-08T09:11:16;3.61;96.34
66343;DHT22;53144;51.524;5.080;2022-12-08T09:13:43;3.65;96.10
66343;DHT22;53144;51.524;5.080;2022-12-08T09:16:09;3.72;96.33
66343;DHT22;53144;51.524;5.080;2022-12-08T09:18:35;3.69;95.39
66343;DHT22;53144;51.524;5.080;2022-12-08T09:21:09;3.78;96.24
66343;DHT22;53144;51.524;5.080;2022-12-08T09:23:37;3.81;96.24
66343;DHT22;53144;51.524;5.080;2022-12-08T09:26:03;3.83;96.02
66343;DHT22;53144;51.524;5.080;2022-12-08T09:28:29;3.89;95.81
66343;DHT22;53144;51.524;5.080;2022-12-08T09:30:54;3.89;95.90
66343;DHT22;53144;51.524;5.080;2022-12-08T09:33:20;3.89;95.76
66343;DHT22;53144;51.524;5.080;2022-12-08T09:35:45;3.96;95.70
66343;DHT22;53144;51.524;5.080;2022-12-08T09:38:11;3.87;96.00
66343;DHT22;53144;51.524;5.080;2022-12-08T09:40:45;3.92;96.29
66343;DHT22;53144;51.524;5.080;2022-12-08T09:46:07;3.95;96.27
66343;DHT22;53144;51.524;5.080;2022-12-08T09:48:42;3.92;96.28
66343;DHT22;53144;51.524;5.080;2022-12-08T09:51:12;3.95;96.27
66343;DHT22;53144;51.524;5.080;2022-12-08T09:53:48;3.97;96.27
66343;DHT22;53144;51.524;5.080;2022-12-08T09:56:18;4.05;96.69
66343;DHT22;53144;51.524;5.080;2022-12-08T09:58:52;4.05;96.50
66343;DHT22;53144;51.524;5.080;2022-12-08T10:01:20;4.09;96.54
66343;DHT22;53144;51.524;5.080;2022-12-08T10:03:49;4.11;96.37
66343;DHT22;53144;51.524;5.080;2022-12-08T10:12:18;3.93;96.29
66343;DHT22;53144;51.524;5.080;2022-12-08T10:17:39;3.93;96.25
66343;DHT22;53144;51.524;5.080;2022-12-08T10:20:15;4.00;96.74
66343;DHT22;53144;51.524;5.080;2022-12-08T10:22:43;4.00;96.56
66343;DHT22;53144;51.524;5.080;2022-12-08T10:25:20;3.93;97.20
66343;DHT22;53144;51.524;5.080;2022-12-08T10:27:49;3.97;97.16
66343;DHT22;53144;51.524;5.080;2022-12-08T10:30:17;3.99;97.36
66343;DHT22;53144;51.524;5.080;2022-12-08T10:32:45;3.99;97.17
66343;DHT22;53144;51.524;5.080;2022-12-08T10:35:14;4.03;96.93
66343;DHT22;53144;51.524;5.080;2022-12-08T10:37:40;4.03;97.21
66343;DHT22;53144;51.524;5.080;2022-12-08T10:40:16;3.92;97.21
66343;DHT22;53144;51.524;5.080;2022-12-08T10:42:48;3.97;97.49
66343;DHT22;53144;51.524;5.080;2022-12-08T10:45:38;3.90;97.50
66343;DHT22;53144;51.524;5.080;2022-12-08T10:48:18;3.93;97.65
66343;DHT22;53144;51.524;5.080;2022-12-08T10:53:31;3.85;96.90
66343;DHT22;53144;51.524;5.080;2022-12-08T11:01:20;3.79;96.89
66343;DHT22;53144;51.524;5.080;2022-12-08T11:04:01;3.68;96.20
66343;DHT22;53144;51.524;5.080;2022-12-08T11:09:00;3.47;96.06
66343;DHT22;53144;51.524;5.080;2022-12-08T11:11:48;3.42;96.02
66343;DHT22;53144;51.524;5.080;2022-12-08T11:17:01;3.39;96.60
66343;DHT22;53144;51.524;5.080;2022-12-08T11:19:27;3.51;96.72
66343;DHT22;53144;51.524;5.080;2022-12-08T11:21:56;3.51;96.92
66343;DHT22;53144;51.524;5.080;2022-12-08T11:24:26;3.55;96.89
66343;DHT22;53144;51.524;5.080;2022-12-08T11:27:04;3.54;96.88
66343;DHT22;53144;51.524;5.080;2022-12-08T11:29:32;3.59;96.84
66343;DHT22;53144;51.524;5.080;2022-12-08T11:32:05;3.61;97.20
66343;DHT22;53144;51.524;5.080;2022-12-08T11:34:43;3.56;97.41
66343;DHT22;53144;51.524;5.080;2022-12-08T11:37:12;3.64;97.58
66343;DHT22;53144;51.524;5.080;2022-12-08T11:39:43;3.74;97.48
66343;DHT22;53144;51.524;5.080;2022-12-08T11:42:11;3.78;97.38
66343;DHT22;53144;51.524;5.080;2022-12-08T11:44:57;3.79;97.21
66343;DHT22;53144;51.524;5.080;2022-12-08T11:47:32;3.82;97.34
66343;DHT22;53144;51.524;5.080;2022-12-08T11:50:20;3.81;97.32
66343;DHT22;53144;51.524;5.080;2022-12-08T12:02:29;3.81;97.03
66343;DHT22;53144;51.524;5.080;2022-12-08T12:05:01;3.87;97.14
66343;DHT22;53144;51.524;5.080;2022-12-08T12:10:59;3.82;97.54
66343;DHT22;53144;51.524;5.080;2022-12-08T12:19:23;3.92;97.16
66343;DHT22;53144;51.524;5.080;2022-12-08T12:21:54;3.89;96.93
66343;DHT22;53144;51.524;5.080;2022-12-08T12:24:30;3.86;97.16
66343;DHT22;53144;51.524;5.080;2022-12-08T12:27:03;3.78;97.33
66343;DHT22;53144;51.524;5.080;2022-12-08T12:29:33;3.95;96.97
66343;DHT22;53144;51.524;5.080;2022-12-08T12:32:06;3.95;96.25
66343;DHT22;53144;51.524;5.080;2022-12-08T12:34:35;3.99;96.01
66343;DHT22;53144;51.524;5.080;2022-12-08T12:37:05;4.06;95.74
66343;DHT22;53144;51.524;5.080;2022-12-08T12:39:45;3.99;95.50
66343;DHT22;53144;51.524;5.080;2022-12-08T12:55:59;3.76;94.62
66343;DHT22;53144;51.524;5.080;2022-12-08T13:03:35;3.79;95.06
66343;DHT22;53144;51.524;5.080;2022-12-08T13:06:01;3.71;94.76
66343;DHT22;53144;51.524;5.080;2022-12-08T13:08:35;3.66;94.64
66343;DHT22;53144;51.524;5.080;2022-12-08T13:11:06;3.81;95.42
66343;DHT22;53144;51.524;5.080;2022-12-08T13:13:36;3.89;95.25
66343;DHT22;53144;51.524;5.080;2022-12-08T13:16:23;3.92;95.24
66343;DHT22;53144;51.524;5.080;2022-12-08T13:18:57;3.97;95.21
66343;DHT22;53144;51.524;5.080;2022-12-08T13:21:39;3.99;95.91
66343;DHT22;53144;51.524;5.080;2022-12-08T13:24:24;3.99;94.92
66343;DHT22;53144;51.524;5.080;2022-12-08T13:29:32;3.83;95.25
66343;DHT22;53144;51.524;5.080;2022-12-08T13:34:54;3.90;95.53
66343;DHT22;53144;51.524;5.080;2022-12-08T13:37:45;4.00;95.62
66343;DHT22;53144;51.524;5.080;2022-12-08T13:40:18;3.87;94.08
66343;DHT22;53144;51.524;5.080;2022-12-08T13:45:35;3.90;94.94
66343;DHT22;53144;51.524;5.080;2022-12-08T13:48:27;3.83;95.02
66343;DHT22;53144;51.524;5.080;2022-12-08T13:51:15;3.85;95.60
66343;DHT22;53144;51.524;5.080;2022-12-08T13:53:59;3.92;95.70
66343;DHT22;53144;51.524;5.080;2022-12-08T13:56:29;3.87;95.59
66343;DHT22;53144;51.524;5.080;2022-12-08T13:59:22;3.82;95.58
66343;DHT22;53144;51.524;5.080;2022-12-08T14:01:49;3.82;95.47
66343;DHT22;53144;51.524;5.080;2022-12-08T14:04:16;3.79;95.46
66343;DHT22;53144;51.524;5.080;2022-12-08T14:06:50;3.82;95.77
66343;DHT22;53144;51.524;5.080;2022-12-08T14:09:22;3.76;95.67
66343;DHT22;53144;51.524;5.080;2022-12-08T14:12:04;3.82;95.88
66343;DHT22;53144;51.524;5.080;2022-12-08T14:14:45;3.81;95.85
66343;DHT22;53144;51.524;5.080;2022-12-08T14:17:21;3.74;95.14
66343;DHT22;53144;51.524;5.080;2022-12-08T14:19:57;3.71;95.10
66343;DHT22;53144;51.524;5.080;2022-12-08T14:22:31;3.75;95.58
66343;DHT22;53144;51.524;5.080;2022-12-08T14:24:57;3.81;95.51
66343;DHT22;53144;51.524;5.080;2022-12-08T14:27:24;3.79;95.79
66343;DHT22;53144;51.524;5.080;2022-12-08T14:29:59;3.75;95.64
66343;DHT22;53144;51.524;5.080;2022-12-08T14:32:26;3.75;95.98
66343;DHT22;53144;51.524;5.080;2022-12-08T14:35:10;3.64;95.66
66343;DHT22;53144;51.524;5.080;2022-12-08T14:37:44;3.69;95.98
66343;DHT22;53144;51.524;5.080;2022-12-08T14:45:32;3.61;96.26
66343;DHT22;53144;51.524;5.080;2022-12-08T14:48:17;3.61;95.60
66343;DHT22;53144;51.524;5.080;2022-12-08T14:50:53;3.51;95.70
66343;DHT22;53144;51.524;5.080;2022-12-08T14:53:26;3.48;95.88
66343;DHT22;53144;51.524;5.080;2022-12-08T14:55:55;3.50;96.16
66343;DHT22;53144;51.524;5.080;2022-12-08T14:58:29;3.42;96.20
66343;DHT22;53144;51.524;5.080;2022-12-08T15:00:59;3.35;96.17
66343;DHT22;53144;51.524;5.080;2022-12-08T15:03:29;3.28;96.57
66343;DHT22;53144;51.524;5.080;2022-12-08T15:05:57;3.30;96.70
66343;DHT22;53144;51.524;5.080;2022-12-08T15:08:23;3.28;96.79
66343;DHT22;53144;51.524;5.080;2022-12-08T15:11:12;3.24;96.71
66343;DHT22;53144;51.524;5.080;2022-12-08T15:13:43;3.17;96.95
66343;DHT22;53144;51.524;5.080;2022-12-08T15:16:23;3.10;96.89
66343;DHT22;53144;51.524;5.080;2022-12-08T15:19:02;3.06;97.03
66343;DHT22;53144;51.524;5.080;2022-12-08T15:21:29;3.10;96.99
66343;DHT22;53144;51.524;5.080;2022-12-08T15:23:55;3.07;96.76
66343;DHT22;53144;51.524;5.080;2022-12-08T15:26:25;3.06;96.96
66343;DHT22;53144;51.524;5.080;2022-12-08T15:28:52;3.07;97.12
66343;DHT22;53144;51.524;5.080;2022-12-08T15:31:18;2.99;97.15
66343;DHT22;53144;51.524;5.080;2022-12-08T15:33:44;3.01;96.60
66343;DHT22;53144;51.524;5.080;2022-12-08T15:36:10;2.99;96.78
66343;DHT22;53144;51.524;5.080;2022-12-08T15:38:36;2.97;96.63
66343;DHT22;53144;51.524;5.080;2022-12-08T15:41:05;2.95;96.70
66343;DHT22;53144;51.524;5.080;2022-12-08T15:43:34;2.99;96.91
66343;DHT22;53144;51.524;5.080;2022-12-08T15:46:00;3.00;96.60
66343;DHT22;53144;51.524;5.080;2022-12-08T15:48:31;2.97;96.41
66343;DHT22;53144;51.524;5.080;2022-12-08T15:50:59;2.93;96.67
66343;DHT22;53144;51.524;5.080;2022-12-08T15:53:25;2.95;96.94
66343;DHT22;53144;51.524;5.080;2022-12-08T15:55:50;2.92;96.76
66343;DHT22;53144;51.524;5.080;2022-12-08T15:58:21;2.96;96.79
66343;DHT22;53144;51.524;5.080;2022-12-08T16:00:48;2.99;96.98
66343;DHT22;53144;51.524;5.080;2022-12-08T16:03:22;2.90;97.00
66343;DHT22;53144;51.524;5.080;2022-12-08T16:05:48;2.92;97.14
66343;DHT22;53144;51.524;5.080;2022-12-08T16:08:14;2.85;96.89
66343;DHT22;53144;51.524;5.080;2022-12-08T16:10:42;2.79;97.22
66343;DHT22;53144;51.524;5.080;2022-12-08T16:13:19;2.76;97.25
66343;DHT22;53144;51.524;5.080;2022-12-08T16:16:27;2.68;97.25
66343;DHT22;53144;51.524;5.080;2022-12-08T16:18:55;2.72;97.45
66343;DHT22;53144;51.524;5.080;2022-12-08T16:21:20;2.60;97.52
66343;DHT22;53144;51.524;5.080;2022-12-08T16:23:46;2.58;97.51
66343;DHT22;53144;51.524;5.080;2022-12-08T16:26:12;2.55;97.52
66343;DHT22;53144;51.524;5.080;2022-12-08T16:28:40;2.62;97.42
66343;DHT22;53144;51.524;5.080;2022-12-08T16:31:06;2.56;97.50
66343;DHT22;53144;51.524;5.080;2022-12-08T16:33:34;2.52;97.68
66343;DHT22;53144;51.524;5.080;2022-12-08T16:35:59;2.62;97.84
66343;DHT22;53144;51.524;5.080;2022-12-08T16:38:25;2.66;97.85
66343;DHT22;53144;51.524;5.080;2022-12-08T16:40:50;2.63;97.50
66343;DHT22;53144;51.524;5.080;2022-12-08T16:43:37;2.68;97.54
66343;DHT22;53144;51.524;5.080;2022-12-08T16:46:02;2.71;97.56
66343;DHT22;53144;51.524;5.080;2022-12-08T16:48:27;2.68;97.51
66343;DHT22;53144;51.524;5.080;2022-12-08T16:50:53;2.60;97.68
66343;DHT22;53144;51.524;5.080;2022-12-08T16:53:19;2.59;97.75
66343;DHT22;53144;51.524;5.080;2022-12-08T16:55:46;2.63;97.81
66343;DHT22;53144;51.524;5.080;2022-12-08T16:58:11;2.59;97.94
66343;DHT22;53144;51.524;5.080;2022-12-08T17:00:37;2.56;98.16
66343;DHT22;53144;51.524;5.080;2022-12-08T17:03:03;2.63;97.95
66343;DHT22;53144;51.524;5.080;2022-12-08T17:05:29;2.58;98.06
66343;DHT22;53144;51.524;5.080;2022-12-08T17:07:54;2.56;98.04
66343;DHT22;53144;51.524;5.080;2022-12-08T17:10:26;2.55;97.95
66343;DHT22;53144;51.524;5.080;2022-12-08T17:12:55;2.58;97.94
66343;DHT22;53144;51.524;5.080;2022-12-08T17:15:26;2.55;98.08
66343;DHT22;53144;51.524;5.080;2022-12-08T17:17:54;2.60;98.16
66343;DHT22;53144;51.524;5.080;2022-12-08T17:20:27;2.60;98.17
66343;DHT22;53144;51.524;5.080;2022-12-08T17:22:56;2.65;98.32
66343;DHT22;53144;51.524;5.080;2022-12-08T17:25:25;2.65;98.27
66343;DHT22;53144;51.524;5.080;2022-12-08T17:27:58;2.68;98.29
66343;DHT22;53144;51.524;5.080;2022-12-08T17:30:26;2.76;98.09
66343;DHT22;53144;51.524;5.080;2022-12-08T17:32:54;2.82;97.89
66343;DHT22;53144;51.524;5.080;2022-12-08T17:35:20;2.76;97.92
66343;DHT22;53144;51.524;5.080;2022-12-08T17:37:45;2.79;97.85
66343;DHT22;53144;51.524;5.080;2022-12-08T17:40:11;2.79;97.92
66343;DHT22;53144;51.524;5.080;2022-12-08T17:42:36;2.87;98.13
66343;DHT22;53144;51.524;5.080;2022-12-08T17:45:03;2.90;98.29
66343;DHT22;53144;51.524;5.080;2022-12-08T17:47:29;2.89;98.23
66343;DHT22;53144;51.524;5.080;2022-12-08T17:49:54;2.93;98.24